ADDS METAR Data INFO
IDs: Format: Raw Decoded Include TAF

Data at: 0930 UTC 11 Dec 2017

KHZR 110915Z AUTO 00000KT 10SM CLR 01/01 A3031 RMK AO2 T00120006
KHZR 110855Z AUTO 00000KT 10SM CLR 02/01 A3031 RMK AO2 T00150008
KHZR 110835Z AUTO 00000KT 10SM CLR 01/01 A3031 RMK AO2 T00130007
KHZR 110815Z AUTO 00000KT 10SM CLR 02/01 A3031 RMK AO2 T00160008
KHZR 110755Z AUTO 00000KT 10SM CLR 01/00 A3032 RMK AO2 T00140004
KHZR 110735Z AUTO 00000KT 10SM CLR 01/00 A3032 RMK AO2 T00110000
KHZR 110715Z AUTO 00000KT 10SM CLR 02/01 A3032 RMK AO2 T00170007
KHZR 110655Z AUTO 00000KT 10SM CLR 02/01 A3032 RMK AO2 T00220007
KHZR 110635Z AUTO 00000KT 10SM CLR 02/01 A3033 RMK AO2 T00170010
KHZR 110615Z AUTO 00000KT 10SM CLR 02/01 A3033 RMK AO2 T00200010
KHZR 110555Z AUTO 00000KT 10SM CLR 02/01 A3034 RMK AO2 T00200010 10079 20014 401461011
KHZR 110535Z AUTO 00000KT 10SM CLR 02/01 A3034 RMK AO2 T00200011
KHZR 110515Z AUTO 00000KT 10SM CLR 02/01 A3034 RMK AO2 T00200011
KHZR 110455Z AUTO 00000KT 10SM CLR 02/01 A3034 RMK AO2 T00240012
KHZR 110435Z AUTO 00000KT 10SM CLR 02/01 A3034 RMK AO2 T00230013
KHZR 110415Z AUTO 00000KT 10SM CLR 03/02 A3035 RMK AO2 T00290015
KHZR 110355Z AUTO 00000KT 10SM CLR 03/02 A3035 RMK AO2 T00260017
KHZR 110335Z AUTO 00000KT 10SM CLR 03/02 A3036 RMK AO2 T00300016
KHZR 110315Z AUTO 00000KT 10SM CLR 03/02 A3035 RMK AO2 T00320020
KHZR 110255Z AUTO 00000KT 10SM CLR 03/02 A3035 RMK AO2 T00320021
KHZR 110235Z AUTO 00000KT 10SM CLR 04/02 A3035 RMK AO2 T00370024
KHZR 110215Z AUTO 00000KT 10SM CLR 04/02 A3035 RMK AO2 T00410019
KHZR 110155Z AUTO 00000KT 10SM CLR 04/03 A3035 RMK AO2 T00410026
KHZR 110135Z AUTO 00000KT 10SM CLR 05/02 A3035 RMK AO2 T00490024
KHZR 110115Z AUTO 00000KT 10SM CLR 05/03 A3035 RMK AO2 T00540029
KHZR 110055Z AUTO 00000KT 10SM CLR 06/04 A3035 RMK AO2 T00600038
KHZR 110035Z AUTO 00000KT 10SM CLR 07/04 A3034 RMK AO2 T00690035
KHZR 110015Z AUTO 00000KT 10SM CLR 06/04 A3034 RMK AO2 T00620036
KHZR 102355Z AUTO 00000KT 10SM CLR 08/03 A3034 RMK AO2 T00750027 10146 20071
KHZR 102335Z AUTO 00000KT 10SM CLR 09/04 A3033 RMK AO2 T00930035
KHZR 102315Z AUTO 00000KT 10SM CLR 11/01 A3033 RMK AO2 T01080007
KHZR 102255Z AUTO 00000KT 10SM CLR 13/M01 A3033 RMK AO2 T01251006
KHZR 102235Z AUTO 00000KT 10SM CLR 14/00 A3033 RMK AO2 T01351003
KHZR 102215Z AUTO 29003KT 10SM CLR 14/00 A3034 RMK AO2 T01401004
KHZR 102155Z AUTO 27003KT 10SM CLR 14/M02 A3035 RMK AO2 T01421021
KHZR 102135Z AUTO 30005KT 10SM CLR 15/M03 A3034 RMK AO2 T01451027
KHZR 102115Z AUTO 30005KT 10SM CLR 15/M02 A3033 RMK AO2 T01451025
KHZR 102055Z AUTO 32005KT 10SM CLR 15/M02 A3033 RMK AO2 T01461021
KHZR 102035Z AUTO 29005KT 10SM CLR 15/M03 A3034 RMK AO2 T01451033
KHZR 102015Z AUTO 29005KT 10SM CLR 14/M03 A3034 RMK AO2 T01421034
KHZR 101955Z AUTO 27007KT 10SM CLR 15/M03 A3035 RMK AO2 T01451028
KHZR 101935Z AUTO 27006KT 10SM CLR 14/M02 A3035 RMK AO2 T01381021
KHZR 101915Z AUTO 24004KT 10SM CLR 14/M02 A3036 RMK AO2 T01381018
KHZR 101855Z AUTO 24005KT 10SM CLR 14/M02 A3036 RMK AO2 T01351022
KHZR 101835Z AUTO 28006KT 10SM CLR 13/M02 A3037 RMK AO2 T01311017
KHZR 101815Z AUTO 28005KT 10SM CLR 13/00 A3038 RMK AO2 T01281002
KHZR 101755Z AUTO 29005KT 10SM CLR 13/00 A3039 RMK AO2 T01270000 10127 21011
KHZR 101735Z AUTO 00000KT 10SM CLR 12/00 A3041 RMK AO2 T01200004
KHZR 101715Z AUTO 00000KT 10SM CLR 11/02 A3042 RMK AO2 T01140020
KHZR 101655Z AUTO 00000KT 10SM CLR 11/02 A3042 RMK AO2 T01100022
KHZR 101635Z AUTO 00000KT 10SM CLR 10/02 A3042 RMK AO2 T00990024
KHZR 101615Z AUTO 00000KT 10SM CLR 09/02 A3043 RMK AO2 T00880022
KHZR 101555Z AUTO 00000KT 10SM CLR 08/02 A3043 RMK AO2 T00800022
KHZR 101535Z AUTO 00000KT 10SM CLR 07/02 A3043 RMK AO2 T00670021
KHZR 101515Z AUTO 00000KT 10SM CLR 06/02 A3042 RMK AO2 T00570019
KHZR 101455Z AUTO 00000KT 10SM CLR 05/02 A3042 RMK AO2 T00490019
KHZR 101435Z AUTO 00000KT 10SM CLR 04/02 A3041 RMK AO2 T00390021
KHZR 101415Z AUTO 00000KT 10SM CLR 02/01 A3041 RMK AO2 T00230014
KHZR 101355Z AUTO 00000KT 10SM CLR 01/00 A3040 RMK AO2 T00060001
KHZR 101335Z AUTO 00000KT 10SM CLR 00/00 A3039 RMK AO2 T00001003
KHZR 101315Z AUTO 00000KT 10SM CLR M01/M01 A3039 RMK AO2 T10091012
KHZR 101255Z AUTO 00000KT 10SM CLR M01/M01 A3038 RMK AO2 T10081011
KHZR 101235Z AUTO 00000KT 10SM CLR M01/M01 A3037 RMK AO2 T10101013
KHZR 101215Z AUTO 00000KT 10SM CLR M01/M01 A3037 RMK AO2 T10061009
KHZR 101155Z AUTO 00000KT 10SM CLR 00/M01 A3036 RMK AO2 T10051009 10010 21008
KHZR 101135Z AUTO 00000KT 10SM CLR M01/M01 A3035 RMK AO2 T10061010
KHZR 101115Z AUTO 00000KT 10SM CLR 00/M01 A3035 RMK AO2 T10031006
KHZR 101055Z AUTO 00000KT 10SM CLR 00/00 A3034 RMK AO2 T00001001
KHZR 101035Z AUTO 00000KT 10SM CLR 00/00 A3034 RMK AO2 T10021005
KHZR 101015Z AUTO 00000KT 10SM CLR 00/M01 A3035 RMK AO2 T10041007
KHZR 100955Z AUTO 00000KT 10SM CLR 00/00 A3035 RMK AO2 T00001004
KHZR 100935Z AUTO 00000KT 10SM CLR 00/00 A3035 RMK AO2 T00001001
KHZR 100915Z AUTO 00000KT 10SM CLR 00/00 A3035 RMK AO2 T10011004
KHZR 100855Z AUTO 00000KT 10SM CLR 00/00 A3035 RMK AO2 T00001004
KHZR 100835Z AUTO 00000KT 10SM CLR 00/00 A3035 RMK AO2 T00001002
KHZR 100815Z AUTO 00000KT 10SM CLR 00/00 A3034 RMK AO2 T00021001
KHZR 100755Z AUTO 00000KT 10SM CLR 00/00 A3034 RMK AO2 T00010000
KHZR 100735Z AUTO 00000KT 10SM CLR 00/00 A3033 RMK AO2 T00010000
KHZR 100715Z AUTO 00000KT 10SM CLR 01/00 A3033 RMK AO2 T00050001
KHZR 100655Z AUTO 00000KT 10SM CLR 01/00 A3033 RMK AO2 T00050000
KHZR 100635Z AUTO 00000KT 10SM CLR 01/01 A3033 RMK AO2 T00080005
KHZR 100615Z AUTO 00000KT 10SM CLR 01/01 A3033 RMK AO2 T00090005
KHZR 100555Z AUTO 00000KT 10SM CLR 01/00 A3033 RMK AO2 T00070003 10067 20007 401151025
KHZR 100535Z AUTO 00000KT 10SM CLR 01/01 A3032 RMK AO2 T00100005
KHZR 100515Z AUTO 00000KT 10SM CLR 01/01 A3032 RMK AO2 T00130007
KHZR 100455Z AUTO 00000KT 10SM CLR 02/01 A3032 RMK AO2 T00190012
KHZR 100435Z AUTO 00000KT 10SM CLR 02/01 A3032 RMK AO2 T00150008
KHZR 100415Z AUTO 00000KT 10SM CLR 02/01 A3031 RMK AO2 T00170010
KHZR 100355Z AUTO 00000KT 10SM CLR 02/01 A3030 RMK AO2 T00190010
KHZR 100335Z AUTO 00000KT 10SM CLR 02/01 A3030 RMK AO2 T00210014
KHZR 100315Z AUTO 00000KT 10SM CLR 02/01 A3028 RMK AO2 T00240014
KHZR 100255Z AUTO 00000KT 10SM CLR 02/02 A3028 RMK AO2 T00230015
KHZR 100235Z AUTO 00000KT 10SM CLR 03/02 A3028 RMK AO2 T00280017
KHZR 100215Z AUTO 00000KT 10SM CLR 03/02 A3027 RMK AO2 T00310016
KHZR 100155Z AUTO 00000KT 10SM CLR 03/02 A3026 RMK AO2 T00320018
KHZR 100135Z AUTO 25003KT 10SM CLR 04/02 A3026 RMK AO2 T00390015
KHZR 100115Z AUTO 00000KT 10SM CLR 04/02 A3025 RMK AO2 T00390021
KHZR 100055Z AUTO 00000KT 10SM CLR 05/02 A3024 RMK AO2 T00500015
KHZR 100035Z AUTO 24003KT 10SM CLR 06/02 A3024 RMK AO2 T00560016
KHZR 100015Z AUTO 22003KT 10SM CLR 06/02 A3023 RMK AO2 T00600023
KHZR 092355Z AUTO 00000KT 10SM CLR 07/02 A3022 RMK AO2 T00660023 10115 20066
KHZR 092335Z AUTO 00000KT 10SM CLR 08/03 A3021 RMK AO2 T00750025
KHZR 092315Z AUTO 26003KT 10SM CLR 08/01 A3020 RMK AO2 T00810010
KHZR 092255Z AUTO 26003KT 10SM CLR 09/01 A3020 RMK AO2 T00940006
KHZR 092235Z AUTO 29004KT 10SM CLR 11/00 A3019 RMK AO2 T01050001
KHZR 092215Z AUTO 30005KT 10SM CLR 11/00 A3019 RMK AO2 T01101002
KHZR 092155Z AUTO 31008KT 10SM CLR 11/00 A3018 RMK AO2 T01111002
KHZR 092135Z AUTO 30006KT 10SM CLR 11/00 A3019 RMK AO2 T01131004